sensor_id;sensor_type;location;lat;lon;timestamp;pressure;altitude;pressure_sealevel;temperature;humidity
51603;BME280;37954;51.980;5.850;2023-03-01T00:02:25;102824.88;;;1.58;53.94
51603;BME280;37954;51.980;5.850;2023-03-01T00:06:37;102827.31;;;1.61;54.24
51603;BME280;37954;51.980;5.850;2023-03-01T00:10:49;102816.59;;;1.62;54.80
51603;BME280;37954;51.980;5.850;2023-03-01T00:15:00;102801.53;;;1.52;54.42
51603;BME280;37954;51.980;5.850;2023-03-01T00:19:15;102813.81;;;1.53;54.78
51603;BME280;37954;51.980;5.850;2023-03-01T00:23:27;102805.13;;;1.51;54.51
51603;BME280;37954;51.980;5.850;2023-03-01T00:27:39;102784.50;;;1.43;54.92
51603;BME280;37954;51.980;5.850;2023-03-01T00:31:50;102786.19;;;1.44;54.60
51603;BME280;37954;51.980;5.850;2023-03-01T00:36:03;102791.31;;;1.34;55.20
51603;BME280;37954;51.980;5.850;2023-03-01T00:40:15;102794.41;;;1.28;54.88
51603;BME280;37954;51.980;5.850;2023-03-01T00:44:27;102781.00;;;1.19;55.05
51603;BME280;37954;51.980;5.850;2023-03-01T00:48:40;102791.59;;;1.19;55.25
51603;BME280;37954;51.980;5.850;2023-03-01T00:52:54;102794.84;;;1.22;55.78
51603;BME280;37954;51.980;5.850;2023-03-01T00:57:06;102771.94;;;1.10;56.21
51603;BME280;37954;51.980;5.850;2023-03-01T01:01:20;102770.00;;;1.12;55.48
51603;BME280;37954;51.980;5.850;2023-03-01T01:05:34;102769.50;;;1.07;56.18
51603;BME280;37954;51.980;5.850;2023-03-01T01:09:46;102761.91;;;1.02;56.30
51603;BME280;37954;51.980;5.850;2023-03-01T01:13:58;102762.25;;;0.98;56.18
51603;BME280;37954;51.980;5.850;2023-03-01T01:18:10;102754.00;;;0.90;56.18
51603;BME280;37954;51.980;5.850;2023-03-01T01:22:21;102751.81;;;0.84;56.79
51603;BME280;37954;51.980;5.850;2023-03-01T01:26:34;102744.31;;;0.78;57.12
51603;BME280;37954;51.980;5.850;2023-03-01T01:30:46;102749.59;;;0.78;57.62
51603;BME280;37954;51.980;5.850;2023-03-01T01:34:57;102735.72;;;0.74;57.23
51603;BME280;37954;51.980;5.850;2023-03-01T01:39:09;102740.41;;;0.70;57.57
51603;BME280;37954;51.980;5.850;2023-03-01T01:43:27;102733.88;;;0.63;58.40
51603;BME280;37954;51.980;5.850;2023-03-01T01:47:39;102741.34;;;0.69;58.32
51603;BME280;37954;51.980;5.850;2023-03-01T01:51:55;102741.34;;;0.69;58.31
51603;BME280;37954;51.980;5.850;2023-03-01T01:56:08;102745.25;;;0.77;58.81
51603;BME280;37954;51.980;5.850;2023-03-01T02:00:26;102734.72;;;0.64;58.67
51603;BME280;37954;51.980;5.850;2023-03-01T02:04:38;102743.38;;;0.66;59.12
51603;BME280;37954;51.980;5.850;2023-03-01T02:08:52;102734.59;;;0.65;59.01
51603;BME280;37954;51.980;5.850;2023-03-01T02:13:04;102725.09;;;0.63;58.94
51603;BME280;37954;51.980;5.850;2023-03-01T02:17:17;102732.91;;;0.64;58.76
51603;BME280;37954;51.980;5.850;2023-03-01T02:26:11;102728.38;;;0.54;59.89
51603;BME280;37954;51.980;5.850;2023-03-01T02:30:28;102719.16;;;0.59;59.37
51603;BME280;37954;51.980;5.850;2023-03-01T02:34:41;102721.81;;;0.59;59.65
51603;BME280;37954;51.980;5.850;2023-03-01T02:38:56;102719.28;;;0.58;59.73
51603;BME280;37954;51.980;5.850;2023-03-01T02:43:10;102707.97;;;0.56;59.45
51603;BME280;37954;51.980;5.850;2023-03-01T02:47:24;102705.66;;;0.51;60.24
51603;BME280;37954;51.980;5.850;2023-03-01T02:56:04;102713.25;;;0.56;60.02
51603;BME280;37954;51.980;5.850;2023-03-01T03:00:23;102722.44;;;0.63;59.92
51603;BME280;37954;51.980;5.850;2023-03-01T03:04:36;102709.75;;;0.55;60.45
51603;BME280;37954;51.980;5.850;2023-03-01T03:08:48;102707.31;;;0.52;60.21
51603;BME280;37954;51.980;5.850;2023-03-01T03:13:05;102698.16;;;0.45;60.61
51603;BME280;37954;51.980;5.850;2023-03-01T03:17:17;102696.38;;;0.46;60.50
51603;BME280;37954;51.980;5.850;2023-03-01T03:21:28;102692.97;;;0.44;60.30
51603;BME280;37954;51.980;5.850;2023-03-01T03:25:40;102696.38;;;0.46;60.83
51603;BME280;37954;51.980;5.850;2023-03-01T03:29:52;102686.44;;;0.37;60.76
51603;BME280;37954;51.980;5.850;2023-03-01T03:34:03;102663.31;;;0.27;60.69
51603;BME280;37954;51.980;5.850;2023-03-01T03:38:18;102688.97;;;0.38;60.71
51603;BME280;37954;51.980;5.850;2023-03-01T03:42:30;102694.25;;;0.38;60.80
51603;BME280;37954;51.980;5.850;2023-03-01T03:46:42;102689.81;;;0.39;60.94
51603;BME280;37954;51.980;5.850;2023-03-01T03:50:55;102663.19;;;0.29;60.83
51603;BME280;37954;51.980;5.850;2023-03-01T03:55:08;102671.41;;;0.37;60.82
51603;BME280;37954;51.980;5.850;2023-03-01T03:59:20;102678.50;;;0.37;60.79
51603;BME280;37954;51.980;5.850;2023-03-01T04:03:33;102678.84;;;0.32;61.06
51603;BME280;37954;51.980;5.850;2023-03-01T04:07:49;102680.75;;;0.30;60.96
51603;BME280;37954;51.980;5.850;2023-03-01T04:12:12;102675.56;;;0.28;61.46
51603;BME280;37954;51.980;5.850;2023-03-01T04:16:24;102685.09;;;0.31;61.69
51603;BME280;37954;51.980;5.850;2023-03-01T04:20:36;102680.84;;;0.28;61.29
51603;BME280;37954;51.980;5.850;2023-03-01T04:24:48;102680.31;;;0.23;61.23
51603;BME280;37954;51.980;5.850;2023-03-01T04:29:00;102670.81;;;0.21;61.64
51603;BME280;37954;51.980;5.850;2023-03-01T04:33:12;102659.41;;;0.20;61.31
51603;BME280;37954;51.980;5.850;2023-03-01T04:37:23;102679.28;;;0.26;61.91
51603;BME280;37954;51.980;5.850;2023-03-01T04:41:35;102661.31;;;0.18;61.82
51603;BME280;37954;51.980;5.850;2023-03-01T04:45:47;102664.69;;;0.20;61.83
51603;BME280;37954;51.980;5.850;2023-03-01T04:49:58;102666.16;;;0.24;61.96
51603;BME280;37954;51.980;5.850;2023-03-01T04:54:10;102649.66;;;0.21;62.01
51603;BME280;37954;51.980;5.850;2023-03-01T04:58:26;102657.72;;;0.19;62.01
51603;BME280;37954;51.980;5.850;2023-03-01T05:02:38;102638.06;;;0.11;61.64
51603;BME280;37954;51.980;5.850;2023-03-01T05:06:50;102651.91;;;0.14;62.20
51603;BME280;37954;51.980;5.850;2023-03-01T05:11:02;102637.03;;;0.13;62.29
51603;BME280;37954;51.980;5.850;2023-03-01T05:15:14;102635.22;;;0.14;61.92
51603;BME280;37954;51.980;5.850;2023-03-01T05:19:25;102624.75;;;0.12;62.09
51603;BME280;37954;51.980;5.850;2023-03-01T05:23:38;102615.25;;;0.10;62.10
51603;BME280;37954;51.980;5.850;2023-03-01T05:27:50;102609.13;;;0.09;62.55
51603;BME280;37954;51.980;5.850;2023-03-01T05:32:02;102601.81;;;0.13;62.22
51603;BME280;37954;51.980;5.850;2023-03-01T05:36:14;102590.09;;;0.04;62.18
51603;BME280;37954;51.980;5.850;2023-03-01T05:40:26;102595.16;;;0.07;62.20
51603;BME280;37954;51.980;5.850;2023-03-01T05:44:38;102597.28;;;0.02;62.92
51603;BME280;37954;51.980;5.850;2023-03-01T05:48:49;102597.28;;;0.02;62.71
51603;BME280;37954;51.980;5.850;2023-03-01T05:53:07;102606.81;;;0.05;63.22
51603;BME280;37954;51.980;5.850;2023-03-01T05:57:19;102608.81;;;0.14;63.25
51603;BME280;37954;51.980;5.850;2023-03-01T06:01:32;102601.72;;;0.14;63.09
51603;BME280;37954;51.980;5.850;2023-03-01T06:05:44;102592.22;;;0.12;63.60
51603;BME280;37954;51.980;5.850;2023-03-01T06:09:55;102589.03;;;0.07;62.87
51603;BME280;37954;51.980;5.850;2023-03-01T06:14:07;102597.59;;;0.10;63.27
51603;BME280;37954;51.980;5.850;2023-03-01T06:18:19;102605.53;;;0.10;63.25
51603;BME280;37954;51.980;5.850;2023-03-01T06:22:31;102605.53;;;0.10;62.81
51603;BME280;37954;51.980;5.850;2023-03-01T06:26:42;102605.84;;;0.06;63.09
51603;BME280;37954;51.980;5.850;2023-03-01T06:30:54;102598.97;;;0.03;63.00
51603;BME280;37954;51.980;5.850;2023-03-01T06:35:06;102594.53;;;0.04;63.16
51603;BME280;37954;51.980;5.850;2023-03-01T06:39:17;102581.75;;;0.10;62.94
51603;BME280;37954;51.980;5.850;2023-03-01T06:43:30;102586.66;;;0.27;62.81
51603;BME280;37954;51.980;5.850;2023-03-01T06:47:42;102574.41;;;0.26;62.74
51603;BME280;37954;51.980;5.850;2023-03-01T06:51:53;102575.66;;;0.33;62.84
51603;BME280;37954;51.980;5.850;2023-03-01T06:56:05;102593.16;;;0.47;62.93
51603;BME280;37954;51.980;5.850;2023-03-01T07:00:17;102598.72;;;0.55;62.58
51603;BME280;37954;51.980;5.850;2023-03-01T07:04:29;102608.53;;;0.66;62.81
51603;BME280;37954;51.980;5.850;2023-03-01T07:08:41;102615.97;;;0.72;62.07
51603;BME280;37954;51.980;5.850;2023-03-01T07:12:57;102612.56;;;0.83;62.30
51603;BME280;37954;51.980;5.850;2023-03-01T07:17:09;102598.38;;;0.84;62.21
51603;BME280;37954;51.980;5.850;2023-03-01T07:21:20;102600.94;;;0.96;62.66
51603;BME280;37954;51.980;5.850;2023-03-01T07:25:32;102590.91;;;1.13;62.45
51603;BME280;37954;51.980;5.850;2023-03-01T07:29:44;102581.09;;;1.37;62.16
51603;BME280;37954;51.980;5.850;2023-03-01T07:33:56;102591.59;;;1.72;61.43
51603;BME280;37954;51.980;5.850;2023-03-01T07:38:07;102592.31;;;1.96;61.06
51603;BME280;37954;51.980;5.850;2023-03-01T07:42:19;102590.97;;;2.24;60.68
51603;BME280;37954;51.980;5.850;2023-03-01T07:46:40;102593.53;;;2.58;59.78
51603;BME280;37954;51.980;5.850;2023-03-01T07:50:52;102597.47;;;3.58;59.85
51603;BME280;37954;51.980;5.850;2023-03-01T07:55:04;102611.84;;;5.14;56.79
51603;BME280;37954;51.980;5.850;2023-03-01T07:59:15;102608.50;;;6.78;55.40
51603;BME280;37954;51.980;5.850;2023-03-01T08:03:27;102621.72;;;8.26;52.00
51603;BME280;37954;51.980;5.850;2023-03-01T08:07:39;102622.03;;;9.55;50.08
51603;BME280;37954;51.980;5.850;2023-03-01T08:11:50;102620.06;;;10.51;46.37
51603;BME280;37954;51.980;5.850;2023-03-01T08:16:08;102621.25;;;11.40;44.76
51603;BME280;37954;51.980;5.850;2023-03-01T08:20:21;102619.84;;;11.96;43.65
51603;BME280;37954;51.980;5.850;2023-03-01T08:24:32;102614.69;;;12.45;41.96
51603;BME280;37954;51.980;5.850;2023-03-01T08:28:45;102617.69;;;12.93;40.00
51603;BME280;37954;51.980;5.850;2023-03-01T08:32:57;102611.59;;;13.55;39.44
51603;BME280;37954;51.980;5.850;2023-03-01T08:37:08;102608.75;;;13.98;38.41
51603;BME280;37954;51.980;5.850;2023-03-01T08:41:21;102618.31;;;14.41;36.91
51603;BME280;37954;51.980;5.850;2023-03-01T08:45:33;102592.47;;;14.32;34.40
51603;BME280;37954;51.980;5.850;2023-03-01T08:49:44;102580.31;;;14.62;34.18
51603;BME280;37954;51.980;5.850;2023-03-01T08:53:56;102598.81;;;14.59;32.99
51603;BME280;37954;51.980;5.850;2023-03-01T08:58:08;102583.84;;;14.63;32.58
51603;BME280;37954;51.980;5.850;2023-03-01T09:02:19;102593.25;;;14.80;32.20
51603;BME280;37954;51.980;5.850;2023-03-01T09:06:33;102580.75;;;14.73;30.90
51603;BME280;37954;51.980;5.850;2023-03-01T09:10:45;102584.31;;;14.86;30.27
51603;BME280;37954;51.980;5.850;2023-03-01T09:14:56;102581.63;;;15.13;30.32
51603;BME280;37954;51.980;5.850;2023-03-01T09:19:08;102571.63;;;15.00;29.99
51603;BME280;37954;51.980;5.850;2023-03-01T09:23:20;102576.81;;;14.95;29.61
51603;BME280;37954;51.980;5.850;2023-03-01T09:27:32;102572.22;;;14.76;29.62
51603;BME280;37954;51.980;5.850;2023-03-01T09:31:44;102565.75;;;14.77;29.45
51603;BME280;37954;51.980;5.850;2023-03-01T09:36:00;102556.22;;;14.87;29.48
51603;BME280;37954;51.980;5.850;2023-03-01T09:40:16;102571.00;;;15.31;29.00
51603;BME280;37954;51.980;5.850;2023-03-01T09:48:51;102558.06;;;15.40;28.41
51603;BME280;37954;51.980;5.850;2023-03-01T09:53:07;102551.44;;;15.03;27.99
51603;BME280;37954;51.980;5.850;2023-03-01T09:57:48;102544.53;;;14.74;28.37
51603;BME280;37954;51.980;5.850;2023-03-01T10:06:36;102545.38;;;14.68;27.68
51603;BME280;37954;51.980;5.850;2023-03-01T10:10:51;102522.66;;;14.49;27.73
51603;BME280;37954;51.980;5.850;2023-03-01T10:15:11;102537.69;;;14.78;27.60
51603;BME280;37954;51.980;5.850;2023-03-01T10:19:42;102550.16;;;15.38;27.71
51603;BME280;37954;51.980;5.850;2023-03-01T10:23:54;102528.28;;;15.33;27.43
51603;BME280;37954;51.980;5.850;2023-03-01T10:32:24;102519.44;;;15.77;27.75
51603;BME280;37954;51.980;5.850;2023-03-01T10:36:38;102513.50;;;16.07;27.45
51603;BME280;37954;51.980;5.850;2023-03-01T10:40:59;102514.25;;;16.20;27.08
51603;BME280;37954;51.980;5.850;2023-03-01T10:49:31;102499.53;;;16.03;26.84
51603;BME280;37954;51.980;5.850;2023-03-01T10:53:48;102493.47;;;16.08;26.73
51603;BME280;37954;51.980;5.850;2023-03-01T10:58:20;102492.38;;;16.15;27.20
51603;BME280;37954;51.980;5.850;2023-03-01T11:02:32;102484.00;;;15.79;26.94
51603;BME280;37954;51.980;5.850;2023-03-01T11:06:57;102474.03;;;15.73;26.84
51603;BME280;37954;51.980;5.850;2023-03-01T11:11:18;102487.31;;;15.87;26.87
51603;BME280;37954;51.980;5.850;2023-03-01T11:15:30;102473.06;;;15.41;26.59
51603;BME280;37954;51.980;5.850;2023-03-01T11:19:42;102464.75;;;15.36;26.62
51603;BME280;37954;51.980;5.850;2023-03-01T11:24:06;102477.03;;;15.38;26.69
51603;BME280;37954;51.980;5.850;2023-03-01T11:28:22;102488.91;;;15.24;26.97
51603;BME280;37954;51.980;5.850;2023-03-01T11:32:50;102462.69;;;15.24;26.64
51603;BME280;37954;51.980;5.850;2023-03-01T11:37:15;102469.19;;;15.04;26.95
51603;BME280;37954;51.980;5.850;2023-03-01T11:41:31;102465.66;;;14.77;27.65
51603;BME280;37954;51.980;5.850;2023-03-01T11:46:01;102451.28;;;14.89;27.46
51603;BME280;37954;51.980;5.850;2023-03-01T11:50:29;102453.09;;;15.28;27.41
51603;BME280;37954;51.980;5.850;2023-03-01T11:55:08;102464.59;;;15.11;26.57
51603;BME280;37954;51.980;5.850;2023-03-01T12:09:36;102452.44;;;14.08;27.10
51603;BME280;37954;51.980;5.850;2023-03-01T12:19:13;102450.72;;;13.87;27.44
51603;BME280;37954;51.980;5.850;2023-03-01T12:37:10;102412.75;;;14.02;27.54
51603;BME280;37954;51.980;5.850;2023-03-01T12:50:12;102393.59;;;13.01;28.08
51603;BME280;37954;51.980;5.850;2023-03-01T12:54:31;102400.72;;;12.74;28.43
51603;BME280;37954;51.980;5.850;2023-03-01T13:03:30;102392.31;;;12.13;29.26
51603;BME280;37954;51.980;5.850;2023-03-01T13:12:41;102373.25;;;12.15;29.77
51603;BME280;37954;51.980;5.850;2023-03-01T13:16:54;102353.00;;;12.19;29.92
51603;BME280;37954;51.980;5.850;2023-03-01T13:21:06;102340.13;;;12.42;30.03
51603;BME280;37954;51.980;5.850;2023-03-01T13:25:19;102337.19;;;12.37;29.85
51603;BME280;37954;51.980;5.850;2023-03-01T13:34:01;102326.03;;;11.55;29.81
51603;BME280;37954;51.980;5.850;2023-03-01T13:38:48;102329.94;;;11.16;29.85
51603;BME280;37954;51.980;5.850;2023-03-01T13:43:31;102294.66;;;10.61;30.73
51603;BME280;37954;51.980;5.850;2023-03-01T13:52:59;102305.50;;;10.67;31.47
51603;BME280;37954;51.980;5.850;2023-03-01T13:57:21;102305.75;;;10.58;31.38
51603;BME280;37954;51.980;5.850;2023-03-01T14:01:36;102296.13;;;10.49;31.67
51603;BME280;37954;51.980;5.850;2023-03-01T14:06:07;102291.31;;;10.44;31.86
51603;BME280;37954;51.980;5.850;2023-03-01T14:10:32;102263.13;;;10.25;31.89
51603;BME280;37954;51.980;5.850;2023-03-01T14:15:02;102293.50;;;10.26;32.21
51603;BME280;37954;51.980;5.850;2023-03-01T14:19:23;102276.94;;;9.99;32.38
51603;BME280;37954;51.980;5.850;2023-03-01T14:23:45;102276.34;;;9.89;32.76
51603;BME280;37954;51.980;5.850;2023-03-01T14:32:30;102268.13;;;9.91;32.88
51603;BME280;37954;51.980;5.850;2023-03-01T14:36:42;102250.66;;;9.72;33.06
51603;BME280;37954;51.980;5.850;2023-03-01T14:40:57;102219.75;;;9.61;33.17
51603;BME280;37954;51.980;5.850;2023-03-01T14:45:12;102236.59;;;9.70;33.35
51603;BME280;37954;51.980;5.850;2023-03-01T14:49:27;102223.00;;;9.71;33.58
51603;BME280;37954;51.980;5.850;2023-03-01T14:53:41;102229.16;;;9.57;33.59
51603;BME280;37954;51.980;5.850;2023-03-01T14:58:27;102232.69;;;9.58;33.46
51603;BME280;37954;51.980;5.850;2023-03-01T15:02:39;102213.84;;;9.43;33.35
51603;BME280;37954;51.980;5.850;2023-03-01T15:06:51;102226.25;;;9.44;33.38
51603;BME280;37954;51.980;5.850;2023-03-01T15:11:16;102230.44;;;9.47;33.52
51603;BME280;37954;51.980;5.850;2023-03-01T15:15:38;102225.09;;;9.38;33.78
51603;BME280;37954;51.980;5.850;2023-03-01T15:19:52;102216.16;;;9.23;33.40
51603;BME280;37954;51.980;5.850;2023-03-01T15:28:29;102214.09;;;9.11;33.66
51603;BME280;37954;51.980;5.850;2023-03-01T15:32:41;102216.94;;;9.09;33.92
51603;BME280;37954;51.980;5.850;2023-03-01T15:36:55;102219.78;;;9.07;34.05
51603;BME280;37954;51.980;5.850;2023-03-01T15:41:46;102215.38;;;8.92;34.01
51603;BME280;37954;51.980;5.850;2023-03-01T15:45:58;102217.06;;;8.85;34.21
51603;BME280;37954;51.980;5.850;2023-03-01T15:50:31;102213.69;;;8.91;34.62
51603;BME280;37954;51.980;5.850;2023-03-01T15:54:46;102205.34;;;8.86;35.06
51603;BME280;37954;51.980;5.850;2023-03-01T15:58:59;102192.50;;;8.81;35.10
51603;BME280;37954;51.980;5.850;2023-03-01T16:03:11;102192.50;;;8.73;35.25
51603;BME280;37954;51.980;5.850;2023-03-01T16:07:23;102189.91;;;8.65;35.30
51603;BME280;37954;51.980;5.850;2023-03-01T16:11:35;102190.44;;;8.52;35.14
51603;BME280;37954;51.980;5.850;2023-03-01T16:15:48;102177.94;;;8.45;34.96
51603;BME280;37954;51.980;5.850;2023-03-01T16:20:00;102193.16;;;8.44;35.16
51603;BME280;37954;51.980;5.850;2023-03-01T16:24:13;102203.53;;;8.39;35.21
51603;BME280;37954;51.980;5.850;2023-03-01T16:28:24;102169.78;;;8.22;35.37
51603;BME280;37954;51.980;5.850;2023-03-01T16:32:40;102159.28;;;8.04;34.95
51603;BME280;37954;51.980;5.850;2023-03-01T16:36:53;102176.00;;;8.06;35.08
51603;BME280;37954;51.980;5.850;2023-03-01T16:41:05;102181.88;;;8.01;35.61
51603;BME280;37954;51.980;5.850;2023-03-01T16:45:17;102192.91;;;7.98;35.87
51603;BME280;37954;51.980;5.850;2023-03-01T16:49:35;102195.28;;;7.93;36.06
51603;BME280;37954;51.980;5.850;2023-03-01T16:53:54;102180.25;;;7.76;36.27
51603;BME280;37954;51.980;5.850;2023-03-01T16:58:05;102192.81;;;7.76;36.22
51603;BME280;37954;51.980;5.850;2023-03-01T17:02:17;102187.44;;;7.67;36.74
51603;BME280;37954;51.980;5.850;2023-03-01T17:06:31;102183.94;;;7.51;36.70
51603;BME280;37954;51.980;5.850;2023-03-01T17:10:43;102169.25;;;7.39;36.85
51603;BME280;37954;51.980;5.850;2023-03-01T17:14:55;102190.81;;;7.37;37.36
51603;BME280;37954;51.980;5.850;2023-03-01T17:19:07;102183.09;;;7.18;37.86
51603;BME280;37954;51.980;5.850;2023-03-01T17:23:19;102185.09;;;7.16;37.87
51603;BME280;37954;51.980;5.850;2023-03-01T17:27:30;102183.59;;;7.05;38.69
51603;BME280;37954;51.980;5.850;2023-03-01T17:31:46;102161.31;;;6.80;38.93
51603;BME280;37954;51.980;5.850;2023-03-01T17:35:58;102185.72;;;6.85;39.24
51603;BME280;37954;51.980;5.850;2023-03-01T17:40:10;102185.34;;;6.72;39.59
51603;BME280;37954;51.980;5.850;2023-03-01T17:44:22;102202.53;;;6.70;40.42
51603;BME280;37954;51.980;5.850;2023-03-01T17:48:35;102193.09;;;6.49;41.10
51603;BME280;37954;51.980;5.850;2023-03-01T17:52:47;102183.56;;;6.39;41.51
51603;BME280;37954;51.980;5.850;2023-03-01T17:57:00;102185.88;;;6.34;41.91
51603;BME280;37954;51.980;5.850;2023-03-01T18:01:14;102196.63;;;6.24;42.66
51603;BME280;37954;51.980;5.850;2023-03-01T18:05:27;102208.69;;;6.28;43.01
51603;BME280;37954;51.980;5.850;2023-03-01T18:09:41;102205.38;;;6.08;43.57
51603;BME280;37954;51.980;5.850;2023-03-01T18:13:54;102195.91;;;6.06;43.38
51603;BME280;37954;51.980;5.850;2023-03-01T18:18:06;102211.06;;;6.05;43.73
51603;BME280;37954;51.980;5.850;2023-03-01T18:22:17;102200.94;;;5.91;44.14
51603;BME280;37954;51.980;5.850;2023-03-01T18:26:29;102212.59;;;5.90;43.77
51603;BME280;37954;51.980;5.850;2023-03-01T18:30:41;102218.56;;;5.84;44.10
51603;BME280;37954;51.980;5.850;2023-03-01T18:34:53;102206.78;;;5.69;44.52
51603;BME280;37954;51.980;5.850;2023-03-01T18:39:06;102195.19;;;5.60;44.63
51603;BME280;37954;51.980;5.850;2023-03-01T18:43:17;102215.38;;;5.63;45.12
51603;BME280;37954;51.980;5.850;2023-03-01T18:47:54;102224.66;;;5.58;45.01
51603;BME280;37954;51.980;5.850;2023-03-01T18:52:06;102201.84;;;5.38;45.19
51603;BME280;37954;51.980;5.850;2023-03-01T18:56:17;102198.34;;;5.38;45.16
51603;BME280;37954;51.980;5.850;2023-03-01T19:00:30;102209.47;;;5.33;45.37
51603;BME280;37954;51.980;5.850;2023-03-01T19:04:42;102199.56;;;5.25;45.49
51603;BME280;37954;51.980;5.850;2023-03-01T19:08:54;102202.53;;;5.22;45.79
51603;BME280;37954;51.980;5.850;2023-03-01T19:13:06;102188.63;;;5.11;46.59
51603;BME280;37954;51.980;5.850;2023-03-01T19:17:20;102200.19;;;5.19;46.54
51603;BME280;37954;51.980;5.850;2023-03-01T19:21:32;102196.47;;;5.12;46.87
51603;BME280;37954;51.980;5.850;2023-03-01T19:25:45;102206.28;;;5.12;46.55
51603;BME280;37954;51.980;5.850;2023-03-01T19:29:56;102217.81;;;5.20;47.02
51603;BME280;37954;51.980;5.850;2023-03-01T19:34:08;102167.84;;;4.97;46.86
51603;BME280;37954;51.980;5.850;2023-03-01T19:38:22;102188.16;;;4.98;46.86
51603;BME280;37954;51.980;5.850;2023-03-01T19:42:34;102218.06;;;5.09;47.56
51603;BME280;37954;51.980;5.850;2023-03-01T19:46:46;102184.66;;;4.97;47.17
51603;BME280;37954;51.980;5.850;2023-03-01T19:50:58;102204.50;;;5.03;47.26
51603;BME280;37954;51.980;5.850;2023-03-01T19:55:10;102206.16;;;4.86;48.16
51603;BME280;37954;51.980;5.850;2023-03-01T19:59:21;102197.09;;;4.79;48.16
51603;BME280;37954;51.980;5.850;2023-03-01T20:03:35;102197.41;;;4.76;48.25
51603;BME280;37954;51.980;5.850;2023-03-01T20:07:46;102215.59;;;4.80;48.38
51603;BME280;37954;51.980;5.850;2023-03-01T20:11:58;102202.47;;;4.69;48.33
51603;BME280;37954;51.980;5.850;2023-03-01T20:16:12;102195.38;;;4.60;48.92
51603;BME280;37954;51.980;5.850;2023-03-01T20:20:25;102207.41;;;4.64;48.48
51603;BME280;37954;51.980;5.850;2023-03-01T20:24:37;102201.69;;;4.59;48.45
51603;BME280;37954;51.980;5.850;2023-03-01T20:28:50;102204.50;;;4.58;48.57
51603;BME280;37954;51.980;5.850;2023-03-01T20:33:03;102199.75;;;4.51;48.74
51603;BME280;37954;51.980;5.850;2023-03-01T20:37:15;102191.28;;;4.38;48.80
51603;BME280;37954;51.980;5.850;2023-03-01T20:41:26;102196.88;;;4.45;48.74
51603;BME280;37954;51.980;5.850;2023-03-01T20:45:38;102177.75;;;4.32;48.83
51603;BME280;37954;51.980;5.850;2023-03-01T20:49:50;102189.31;;;4.40;48.93
51603;BME280;37954;51.980;5.850;2023-03-01T20:54:27;102202.34;;;4.43;49.22
51603;BME280;37954;51.980;5.850;2023-03-01T20:58:40;102167.56;;;4.27;49.13
51603;BME280;37954;51.980;5.850;2023-03-01T21:02:52;102186.41;;;4.34;49.41
51603;BME280;37954;51.980;5.850;2023-03-01T21:07:04;102190.88;;;4.33;49.78
51603;BME280;37954;51.980;5.850;2023-03-01T21:11:16;102192.19;;;4.29;49.66
51603;BME280;37954;51.980;5.850;2023-03-01T21:15:29;102194.84;;;4.29;50.15
51603;BME280;37954;51.980;5.850;2023-03-01T21:19:42;102181.72;;;4.18;50.01
51603;BME280;37954;51.980;5.850;2023-03-01T21:23:54;102190.09;;;4.23;49.78
51603;BME280;37954;51.980;5.850;2023-03-01T21:28:06;102198.38;;;4.20;50.48
51603;BME280;37954;51.980;5.850;2023-03-01T21:32:24;102185.66;;;4.14;50.76
51603;BME280;37954;51.980;5.850;2023-03-01T21:36:35;102186.94;;;4.10;50.63
51603;BME280;37954;51.980;5.850;2023-03-01T21:40:47;102175.75;;;4.06;50.71
51603;BME280;37954;51.980;5.850;2023-03-01T21:44:59;102186.38;;;4.06;50.90
51603;BME280;37954;51.980;5.850;2023-03-01T21:49:11;102183.16;;;4.12;50.93
51603;BME280;37954;51.980;5.850;2023-03-01T21:53:23;102183.16;;;4.03;50.84
51603;BME280;37954;51.980;5.850;2023-03-01T21:57:35;102165.53;;;4.02;50.83
51603;BME280;37954;51.980;5.850;2023-03-01T22:01:54;102167.22;;;4.03;50.32
51603;BME280;37954;51.980;5.850;2023-03-01T22:06:05;102167.50;;;4.00;50.64
51603;BME280;37954;51.980;5.850;2023-03-01T22:10:17;102171.00;;;4.00;50.79
51603;BME280;37954;51.980;5.850;2023-03-01T22:14:37;102154.09;;;3.92;50.50
51603;BME280;37954;51.980;5.850;2023-03-01T22:18:49;102162.19;;;4.00;50.41
51603;BME280;37954;51.980;5.850;2023-03-01T22:23:01;102160.81;;;3.96;50.67
51603;BME280;37954;51.980;5.850;2023-03-01T22:27:13;102145.72;;;3.87;50.77
51603;BME280;37954;51.980;5.850;2023-03-01T22:31:25;102148.41;;;3.77;51.11
51603;BME280;37954;51.980;5.850;2023-03-01T22:35:40;102156.25;;;3.78;51.39
51603;BME280;37954;51.980;5.850;2023-03-01T22:39:52;102167.91;;;3.58;53.10
51603;BME280;37954;51.980;5.850;2023-03-01T22:44:04;102176.44;;;3.52;53.88
51603;BME280;37954;51.980;5.850;2023-03-01T22:48:16;102179.09;;;3.42;54.40
51603;BME280;37954;51.980;5.850;2023-03-01T22:52:27;102184.41;;;3.33;55.59
51603;BME280;37954;51.980;5.850;2023-03-01T22:56:39;102174.47;;;3.15;55.86
51603;BME280;37954;51.980;5.850;2023-03-01T23:00:53;102181.34;;;3.08;57.23
51603;BME280;37954;51.980;5.850;2023-03-01T23:05:05;102192.66;;;3.10;58.13
51603;BME280;37954;51.980;5.850;2023-03-01T23:09:24;102188.31;;;3.00;58.58
51603;BME280;37954;51.980;5.850;2023-03-01T23:13:37;102195.44;;;2.90;59.11
51603;BME280;37954;51.980;5.850;2023-03-01T23:17:49;102195.53;;;2.78;60.53
51603;BME280;37954;51.980;5.850;2023-03-01T23:22:00;102188.53;;;2.77;60.90
51603;BME280;37954;51.980;5.850;2023-03-01T23:26:13;102183.75;;;2.62;62.20
51603;BME280;37954;51.980;5.850;2023-03-01T23:30:25;102192.44;;;2.64;63.25
51603;BME280;37954;51.980;5.850;2023-03-01T23:34:37;102194.50;;;2.60;64.59
51603;BME280;37954;51.980;5.850;2023-03-01T23:39:00;102182.66;;;2.55;64.81
51603;BME280;37954;51.980;5.850;2023-03-01T23:43:13;102175.66;;;2.54;64.67
51603;BME280;37954;51.980;5.850;2023-03-01T23:47:25;102170.06;;;2.47;66.42
51603;BME280;37954;51.980;5.850;2023-03-01T23:51:41;102181.75;;;2.44;67.26
51603;BME280;37954;51.980;5.850;2023-03-01T23:55:55;102174.38;;;2.38;68.19
